Time;durP1;ratioP1;P1;durP2;ratioP2;P2;SDS_P1;SDS_P2;PMS_P1;PMS_P2;Temp;Humidity;BMP_temperature;BMP_pressure;BME280_temperature;BME280_humidity;BME280_pressure;Samples;Min_cycle;Max_cycle;Signal;HPM_P1;HPM_P2
2021/07/14 00:00:42;;;;;;;10.88;7.42;;;27.80;62.10;;;;;;1687886;84;21066;-75
2021/07/14 00:03:11;;;;;;;8.90;7.70;;;27.80;62.30;;;;;;1687712;84;21091;-74
2021/07/14 00:05:40;;;;;;;13.13;8.30;;;27.80;62.30;;;;;;1680062;84;21043;-75
2021/07/14 00:08:11;;;;;;;10.75;7.65;;;27.80;62.20;;;;;;1663039;84;21099;-74
2021/07/14 00:10:38;;;;;;;11.78;7.90;;;27.80;62.10;;;;;;1687927;84;21340;-74
2021/07/14 00:23:40;;;;;;;10.35;7.20;;;27.80;62.20;;;;;;1688608;84;21042;-74
2021/07/14 00:26:07;;;;;;;10.68;7.62;;;27.80;62.20;;;;;;1689069;84;21059;-74
2021/07/14 00:28:35;;;;;;;9.13;7.33;;;27.80;62.10;;;;;;1688021;84;21032;-74
2021/07/14 00:31:02;;;;;;;11.03;7.58;;;27.80;62.00;;;;;;1688834;84;21535;-74
2021/07/14 00:33:30;;;;;;;9.78;7.37;;;27.80;61.90;;;;;;1688721;84;21067;-74
2021/07/14 00:35:58;;;;;;;10.45;7.22;;;27.80;62.00;;;;;;1682619;84;21073;-75
2021/07/14 00:38:25;;;;;;;10.28;7.65;;;27.80;62.00;;;;;;1658986;86;21036;-75
2021/07/14 00:40:52;;;;;;;11.63;8.05;;;27.70;61.90;;;;;;1659826;86;21043;-75
2021/07/14 00:43:19;;;;;;;11.30;7.50;;;27.70;61.90;;;;;;1679900;85;21535;-74
2021/07/14 00:45:46;;;;;;;11.40;7.90;;;27.70;62.00;;;;;;1688201;84;21031;-74
2021/07/14 00:48:15;;;;;;;11.18;7.35;;;27.70;61.90;;;;;;1688131;84;21047;-75
2021/07/14 00:50:43;;;;;;;9.08;7.20;;;27.70;61.70;;;;;;1678002;84;21044;-74
2021/07/14 00:53:10;;;;;;;9.70;7.70;;;27.70;61.90;;;;;;1658966;86;21055;-74
2021/07/14 00:55:37;;;;;;;8.45;7.17;;;27.70;62.00;;;;;;1660649;85;21035;-75
2021/07/14 00:58:05;;;;;;;9.48;7.35;;;27.70;62.00;;;;;;1684181;85;21035;-75
2021/07/14 01:00:32;;;;;;;11.75;7.62;;;27.70;62.00;;;;;;1691021;84;21011;-74
2021/07/14 01:03:00;;;;;;;9.03;7.47;;;27.70;62.00;;;;;;1690576;84;21051;-75
2021/07/14 01:05:44;;;;;;;8.95;7.37;;;27.70;62.00;;;;;;1691411;85;21486;-75
2021/07/14 01:08:28;;;;;;;10.65;7.50;;;27.70;62.10;;;;;;1686435;85;21604;-75
2021/07/14 01:11:12;;;;;;;12.65;7.97;;;27.70;62.20;;;;;;1682809;84;21022;-76
2021/07/14 01:13:50;;;;;;;8.55;7.42;;;27.70;61.90;;;;;;1689033;84;21139;-76
2021/07/14 01:16:22;;;;;;;10.30;8.10;;;27.70;62.00;;;;;;1688904;84;21543;-75
2021/07/14 01:19:17;;;;;;;10.18;7.95;;;27.70;62.10;;;;;;1690374;84;21136;-75
2021/07/14 01:21:49;;;;;;;11.53;7.90;;;27.70;61.90;;;;;;1690467;84;21016;-74
2021/07/14 01:24:33;;;;;;;14.20;8.05;;;27.70;61.90;;;;;;1690945;85;21095;-74
2021/07/14 01:27:17;;;;;;;10.68;7.95;;;27.70;61.90;;;;;;1688808;84;21035;-74
2021/07/14 01:29:57;;;;;;;9.25;7.78;;;27.70;62.00;;;;;;1687753;84;21032;-75
2021/07/14 01:32:28;;;;;;;10.50;8.18;;;27.60;61.90;;;;;;1688192;84;21550;-75
2021/07/14 01:35:01;;;;;;;10.10;7.72;;;27.70;61.90;;;;;;1690208;84;21077;-75
2021/07/14 01:37:30;;;;;;;10.13;7.58;;;27.70;61.90;;;;;;1689661;84;21075;-75
2021/07/14 01:40:01;;;;;;;9.30;7.83;;;27.70;61.90;;;;;;1688356;85;21534;-75
2021/07/14 01:42:30;;;;;;;11.28;8.30;;;27.70;62.00;;;;;;1687652;85;21003;-75
2021/07/14 01:45:00;;;;;;;11.20;8.00;;;27.60;61.80;;;;;;1654576;85;21066;-74
2021/07/14 01:47:29;;;;;;;10.25;7.58;;;27.60;61.80;;;;;;1688959;84;21581;-74
2021/07/14 01:49:58;;;;;;;9.73;7.37;;;27.70;62.00;;;;;;1689429;84;20984;-75
2021/07/14 01:52:30;;;;;;;11.22;7.72;;;27.70;61.90;;;;;;1688365;84;21156;-75
2021/07/14 01:55:05;;;;;;;9.88;7.62;;;27.60;61.80;;;;;;1689293;85;21045;-75
2021/07/14 01:57:35;;;;;;;11.00;7.62;;;27.60;61.80;;;;;;1680015;85;21049;-74
2021/07/14 02:00:07;;;;;;;8.43;7.47;;;27.60;61.80;;;;;;1690698;85;21037;-75
2021/07/14 02:02:47;;;;;;;10.23;7.72;;;27.60;61.80;;;;;;1690219;84;21537;-74
2021/07/14 02:05:08;;;;;;;9.53;7.25;;;27.60;61.70;;;;;;1689948;83;21053;-75
2021/07/14 02:07:36;;;;;;;10.13;7.67;;;27.60;61.50;;;;;;1690565;84;21006;-74
2021/07/14 02:10:03;;;;;;;9.63;7.55;;;27.60;61.60;;;;;;1689922;84;21080;-74
2021/07/14 02:12:34;;;;;;;10.85;7.95;;;27.60;61.50;;;;;;1688144;85;21022;-75
2021/07/14 02:15:08;;;;;;;13.22;7.55;;;27.60;61.40;;;;;;1688982;85;21476;-74
2021/07/14 02:17:41;;;;;;;9.40;7.33;;;27.60;61.40;;;;;;1679786;84;21016;-75
2021/07/14 02:20:15;;;;;;;9.55;8.10;;;27.60;61.40;;;;;;1659587;85;21494;-75
2021/07/14 02:22:44;;;;;;;9.40;7.92;;;27.60;61.50;;;;;;1659227;86;21016;-76
2021/07/14 02:25:12;;;;;;;11.15;7.90;;;27.60;61.50;;;;;;1661598;85;21007;-75
2021/07/14 02:27:40;;;;;;;11.22;7.78;;;27.60;61.30;;;;;;1660158;85;21019;-75
2021/07/14 02:30:21;;;;;;;8.93;7.95;;;27.60;61.30;;;;;;1660441;85;21075;-75
2021/07/14 02:32:40;;;;;;;9.03;7.90;;;27.60;61.30;;;;;;1655526;85;21512;-75
2021/07/14 02:35:09;;;;;;;10.35;8.60;;;27.60;61.40;;;;;;1659067;86;21515;-75
2021/07/14 02:38:06;;;;;;;9.78;7.83;;;27.60;61.60;;;;;;1659907;86;21091;-76
2021/07/14 02:40:54;;;;;;;12.05;7.72;;;27.60;61.60;;;;;;1657719;86;21114;-75
2021/07/14 02:43:27;;;;;;;11.53;8.13;;;27.60;61.60;;;;;;1659593;86;21016;-75
2021/07/14 02:45:59;;;;;;;10.20;8.38;;;27.50;61.60;;;;;;1659187;85;21079;-75
2021/07/14 02:48:27;;;;;;;13.22;8.78;;;27.50;61.70;;;;;;1659699;86;21302;-75
2021/07/14 02:50:59;;;;;;;12.33;7.70;;;27.50;61.60;;;;;;1658995;86;21023;-75
2021/07/14 02:53:31;;;;;;;13.15;8.58;;;27.50;61.60;;;;;;1659718;85;21083;-75
2021/07/14 02:56:03;;;;;;;15.68;8.40;;;27.60;61.80;;;;;;1653492;85;21063;-75
2021/07/14 02:58:34;;;;;;;11.25;9.05;;;27.50;61.70;;;;;;1676141;84;21087;-75
2021/07/14 03:01:02;;;;;;;10.63;8.60;;;27.50;61.90;;;;;;1678622;84;21055;-75
2021/07/14 03:03:30;;;;;;;12.95;9.15;;;27.50;61.90;;;;;;1678911;84;21039;-74
2021/07/14 03:06:01;;;;;;;13.48;8.43;;;27.50;62.00;;;;;;1670772;85;21035;-75
2021/07/14 03:08:32;;;;;;;12.23;8.05;;;27.50;62.10;;;;;;1657796;85;21079;-75
2021/07/14 03:11:01;;;;;;;13.20;8.45;;;27.50;62.10;;;;;;1659202;85;21535;-75
2021/07/14 03:13:36;;;;;;;11.03;8.88;;;27.50;62.10;;;;;;1659283;86;21055;-75
2021/07/14 03:16:05;;;;;;;11.68;8.90;;;27.50;62.20;;;;;;1659509;86;21092;-75
2021/07/14 03:18:33;;;;;;;13.62;8.68;;;27.60;62.10;;;;;;1666632;85;21077;-75
2021/07/14 03:21:02;;;;;;;13.43;8.40;;;27.50;62.10;;;;;;1679006;84;21533;-75
2021/07/14 03:23:31;;;;;;;12.63;8.78;;;27.50;62.10;;;;;;1679015;84;21042;-75
2021/07/14 03:26:00;;;;;;;11.95;8.55;;;27.50;61.90;;;;;;1678897;84;21580;-75
2021/07/14 03:28:32;;;;;;;10.95;8.50;;;27.50;61.80;;;;;;1678894;84;21054;-75
2021/07/14 03:31:01;;;;;;;12.25;8.68;;;27.50;61.90;;;;;;1679009;84;21082;-75
2021/07/14 03:33:30;;;;;;;10.03;8.53;;;27.50;62.70;;;;;;1661159;85;21522;-75
2021/07/14 03:36:07;;;;;;;12.00;8.50;;;27.50;61.90;;;;;;1658078;85;21007;-75
2021/07/14 03:38:35;;;;;;;14.28;8.85;;;27.50;61.90;;;;;;1681059;84;21047;-75
2021/07/14 03:41:05;;;;;;;14.05;9.40;;;27.50;62.00;;;;;;1679327;84;21518;-74
2021/07/14 03:43:34;;;;;;;11.03;8.75;;;27.50;62.00;;;;;;1685078;84;20995;-75
2021/07/14 03:46:05;;;;;;;13.48;8.45;;;27.50;62.10;;;;;;1688339;84;21062;-75
2021/07/14 03:48:34;;;;;;;11.43;8.65;;;27.50;62.20;;;;;;1688310;84;21039;-75
2021/07/14 03:51:03;;;;;;;10.58;8.78;;;27.50;62.20;;;;;;1688373;84;21031;-75
2021/07/14 03:53:30;;;;;;;10.65;8.80;;;27.50;62.20;;;;;;1688220;84;21582;-74
2021/07/14 03:55:58;;;;;;;10.88;8.73;;;27.50;62.10;;;;;;1688164;84;21004;-75
2021/07/14 03:58:26;;;;;;;12.90;8.18;;;27.50;62.10;;;;;;1687904;84;21066;-72
2021/07/14 04:00:54;;;;;;;10.85;8.58;;;27.50;62.40;;;;;;1683980;84;21047;-75
2021/07/14 04:03:27;;;;;;;12.98;8.18;;;27.50;62.70;;;;;;1676237;85;21124;-75
2021/07/14 04:06:01;;;;;;;12.10;8.70;;;27.50;62.80;;;;;;1680811;85;21067;-75
2021/07/14 04:08:34;;;;;;;12.63;8.48;;;27.50;62.80;;;;;;1680962;85;21601;-76
2021/07/14 04:11:01;;;;;;;12.47;8.95;;;27.50;61.80;;;;;;1677630;84;21051;-77
2021/07/14 04:13:28;;;;;;;43.65;12.28;;;27.50;62.50;;;;;;1680906;85;21031;-80
2021/07/14 04:15:54;;;;;;;54.77;12.53;;;27.40;62.10;;;;;;1680616;84;21051;-78
2021/07/14 04:18:21;;;;;;;69.65;12.25;;;27.30;61.80;;;;;;1673478;85;21519;-67
2021/07/14 04:20:51;;;;;;;45.78;12.50;;;27.20;62.90;;;;;;1669364;85;21055;-68
2021/07/14 04:23:17;;;;;;;34.55;12.25;;;27.00;63.50;;;;;;1684536;85;21431;-72
2021/07/14 04:25:44;;;;;;;39.98;12.10;;;26.90;64.10;;;;;;1684912;84;21070;-72
2021/07/14 04:28:11;;;;;;;44.05;12.13;;;26.70;64.90;;;;;;1683602;85;21039;-71
2021/07/14 04:30:38;;;;;;;33.15;11.57;;;26.60;65.70;;;;;;1647473;87;21071;-72
2021/07/14 04:33:05;;;;;;;31.65;12.15;;;26.40;66.30;;;;;;1647266;86;20972;-65
2021/07/14 04:35:32;;;;;;;21.55;11.75;;;26.30;66.90;;;;;;1646466;86;21043;-66
2021/07/14 04:37:59;;;;;;;31.07;12.95;;;26.20;66.90;;;;;;1621248;88;21527;-68
2021/07/14 04:40:26;;;;;;;28.75;12.40;;;26.10;67.30;;;;;;1596627;89;21084;-68
2021/07/14 04:42:52;;;;;;;30.88;11.80;;;26.00;67.80;;;;;;1619884;88;21094;-68
2021/07/14 04:45:20;;;;;;;24.02;11.60;;;26.10;68.10;;;;;;1631602;86;21497;-70
2021/07/14 04:47:47;;;;;;;22.87;10.93;;;26.10;68.10;;;;;;1628059;87;20984;-68
2021/07/14 04:50:14;;;;;;;27.37;11.75;;;26.20;68.30;;;;;;1607317;88;21051;-67
2021/07/14 04:52:41;;;;;;;37.90;16.48;;;26.20;68.30;;;;;;1626368;87;21533;-68
2021/07/14 04:55:10;;;;;;;36.53;17.35;;;26.30;68.40;;;;;;1624104;88;21511;-68
2021/07/14 04:57:37;;;;;;;29.25;15.38;;;26.40;68.40;;;;;;1638986;86;21011;-67
2021/07/14 05:00:07;;;;;;;35.40;17.85;;;26.40;68.50;;;;;;1629046;86;21000;-67
2021/07/14 05:02:34;;;;;;;35.25;17.48;;;26.50;69.50;;;;;;1667539;85;21056;-66
2021/07/14 05:05:01;;;;;;;40.03;17.10;;;26.50;68.60;;;;;;1680329;83;21040;-69
2021/07/14 05:07:29;;;;;;;28.38;17.20;;;26.60;68.70;;;;;;1686455;83;21010;-68
2021/07/14 05:09:58;;;;;;;29.10;15.60;;;26.60;69.30;;;;;;1651574;86;21166;-68
2021/07/14 05:12:24;;;;;;;25.97;15.85;;;26.60;69.10;;;;;;1651850;86;21031;-68
2021/07/14 05:14:51;;;;;;;33.45;16.15;;;26.70;69.10;;;;;;1685679;85;21003;-68
2021/07/14 05:17:18;;;;;;;31.48;15.55;;;26.70;69.00;;;;;;1649299;85;21055;-69
2021/07/14 05:19:46;;;;;;;28.57;16.52;;;26.80;68.90;;;;;;1686268;85;20966;-69
2021/07/14 05:22:15;;;;;;;33.30;16.42;;;26.80;68.90;;;;;;1686430;85;21501;-69
2021/07/14 05:24:43;;;;;;;25.65;14.65;;;26.90;68.80;;;;;;1690308;83;21053;-69
2021/07/14 05:27:10;;;;;;;24.65;13.83;;;26.90;69.10;;;;;;1682129;84;21040;-69
2021/07/14 05:29:36;;;;;;;20.62;12.95;;;26.80;69.00;;;;;;1671688;84;21522;-69
2021/07/14 05:32:05;;;;;;;22.50;12.10;;;26.80;69.30;;;;;;1685492;84;21095;-68
2021/07/14 05:34:33;;;;;;;21.70;12.68;;;26.80;69.60;;;;;;1685408;84;21030;-70
2021/07/14 05:37:01;;;;;;;22.77;12.68;;;26.70;69.70;;;;;;1685476;84;21844;-69
2021/07/14 05:39:27;;;;;;;15.78;11.55;;;26.60;70.10;;;;;;1688798;84;21513;-68
2021/07/14 05:41:54;;;;;;;18.70;11.43;;;26.60;70.60;;;;;;1685663;84;21075;-69
2021/07/14 05:44:21;;;;;;;17.60;10.95;;;26.60;71.20;;;;;;1685800;84;21018;-69
2021/07/14 05:46:50;;;;;;;17.52;11.00;;;26.60;71.30;;;;;;1685557;84;21034;-68
2021/07/14 05:49:16;;;;;;;24.12;11.48;;;26.70;71.70;;;;;;1686652;84;21001;-68
2021/07/14 05:51:44;;;;;;;18.07;10.78;;;26.60;72.10;;;;;;1690325;83;21524;-68
2021/07/14 05:54:11;;;;;;;16.90;10.45;;;26.60;71.20;;;;;;1690811;84;21013;-70
2021/07/14 05:56:38;;;;;;;17.75;10.25;;;26.70;70.80;;;;;;1694353;83;21038;-69
2021/07/14 05:59:05;;;;;;;19.37;10.90;;;26.70;70.70;;;;;;1705177;83;21046;-69
2021/07/14 06:01:32;;;;;;;18.27;9.73;;;26.70;70.30;;;;;;1707338;83;21031;-68
2021/07/14 06:04:00;;;;;;;18.55;10.58;;;26.70;69.90;;;;;;1702931;83;20987;-68
2021/07/14 06:06:27;;;;;;;16.02;10.50;;;26.70;70.20;;;;;;1684947;84;21010;-68
2021/07/14 06:08:54;;;;;;;13.72;10.30;;;26.70;70.70;;;;;;1679613;83;21043;-70
2021/07/14 06:11:21;;;;;;;16.02;10.68;;;26.80;70.80;;;;;;1683043;84;20995;-69
2021/07/14 06:13:48;;;;;;;15.35;10.35;;;26.90;70.70;;;;;;1681534;84;21055;-69
2021/07/14 06:16:15;;;;;;;17.77;10.45;;;26.90;70.50;;;;;;1680670;84;20998;-68
2021/07/14 06:18:42;;;;;;;16.52;10.48;;;27.00;70.30;;;;;;1696774;83;21046;-64
2021/07/14 06:21:08;;;;;;;16.15;9.65;;;27.00;70.00;;;;;;1684150;84;21059;-73
2021/07/14 06:23:36;;;;;;;16.35;10.30;;;27.00;69.90;;;;;;1678819;84;20959;-75
2021/07/14 06:26:05;;;;;;;16.45;10.10;;;27.00;69.70;;;;;;1681124;84;21061;-73
2021/07/14 06:28:32;;;;;;;16.60;10.20;;;27.00;69.70;;;;;;1688787;84;21597;-77
2021/07/14 06:30:59;;;;;;;14.20;10.48;;;27.10;69.70;;;;;;1686273;84;21351;-70
2021/07/14 06:33:27;;;;;;;12.88;10.05;;;27.10;69.60;;;;;;1682085;84;21038;-81
2021/07/14 06:35:55;;;;;;;15.18;9.93;;;27.10;69.60;;;;;;1694727;84;20990;-80
2021/07/14 06:38:23;;;;;;;13.83;10.35;;;27.10;69.50;;;;;;1678839;84;21026;-77
2021/07/14 06:40:50;;;;;;;10.95;9.45;;;27.10;69.50;;;;;;1684602;84;21077;-73
2021/07/14 06:43:18;;;;;;;14.85;10.58;;;27.20;69.80;;;;;;1673520;84;21049;-74
2021/07/14 06:45:49;;;;;;;20.17;11.33;;;27.20;70.30;;;;;;1679069;84;21533;-77
2021/07/14 06:48:16;;;;;;;18.42;11.48;;;27.20;72.40;;;;;;1690921;83;21030;-75
2021/07/14 06:50:43;;;;;;;18.05;11.50;;;27.30;72.80;;;;;;1680634;84;21074;-76
2021/07/14 06:53:12;;;;;;;20.57;11.03;;;27.30;72.00;;;;;;1683286;83;20947;-75
2021/07/14 06:55:39;;;;;;;19.40;11.40;;;27.30;71.90;;;;;;1679124;84;21074;-73
2021/07/14 06:58:06;;;;;;;16.50;11.05;;;27.30;72.40;;;;;;1683748;84;21082;-75
2021/07/14 07:00:35;;;;;;;17.92;10.78;;;27.30;72.30;;;;;;1690336;84;21070;-80
2021/07/14 07:03:02;;;;;;;16.75;10.43;;;27.40;72.60;;;;;;1663095;84;21003;-77
2021/07/14 07:05:29;;;;;;;15.83;10.23;;;27.50;71.30;;;;;;1661789;86;21043;-74
2021/07/14 07:07:56;;;;;;;17.48;10.38;;;27.60;71.40;;;;;;1657949;85;21071;-75
2021/07/14 07:10:23;;;;;;;18.20;10.78;;;27.60;71.60;;;;;;1651743;85;21032;-72
2021/07/14 07:12:50;;;;;;;16.93;10.25;;;27.60;71.10;;;;;;1673028;84;21107;-73
2021/07/14 07:15:18;;;;;;;13.20;9.75;;;27.60;70.70;;;;;;1680527;84;21142;-72
2021/07/14 07:17:45;;;;;;;16.60;10.88;;;27.70;71.50;;;;;;1681906;84;21019;-72
2021/07/14 07:20:14;;;;;;;16.00;10.45;;;27.70;71.60;;;;;;1654176;85;21024;-71
2021/07/14 07:22:44;;;;;;;15.23;11.10;;;27.70;71.60;;;;;;1651857;85;21040;-69
2021/07/14 07:25:12;;;;;;;13.50;10.43;;;27.80;72.10;;;;;;1664695;85;20983;-69
2021/07/14 07:27:41;;;;;;;13.93;10.43;;;27.80;72.00;;;;;;1660479;84;20984;-68
2021/07/14 07:30:11;;;;;;;15.32;10.78;;;27.80;71.60;;;;;;1680820;84;21032;-69
2021/07/14 07:32:39;;;;;;;20.02;12.70;;;27.80;71.60;;;;;;1680750;85;21067;-73
2021/07/14 07:35:08;;;;;;;18.62;12.82;;;27.80;73.20;;;;;;1674678;84;21511;-74
2021/07/14 07:37:34;;;;;;;16.82;11.20;;;27.90;73.20;;;;;;1681364;84;21114;-75
2021/07/14 07:40:02;;;;;;;21.50;11.05;;;27.90;72.10;;;;;;1690456;85;21055;-73
2021/07/14 07:42:29;;;;;;;15.45;11.25;;;27.90;70.50;;;;;;1688923;85;21467;-73
2021/07/14 07:44:55;;;;;;;15.48;10.68;;;28.00;69.20;;;;;;1682316;85;21026;-73
2021/07/14 07:47:22;;;;;;;17.70;11.22;;;28.00;70.10;;;;;;1663293;85;21039;-70
2021/07/14 07:49:49;;;;;;;16.42;10.93;;;28.00;70.00;;;;;;1679313;85;21023;-72
2021/07/14 07:52:22;;;;;;;14.78;11.65;;;28.00;70.20;;;;;;1678540;84;21577;-77
2021/07/14 07:54:52;;;;;;;22.27;13.15;;;28.00;72.50;;;;;;1680772;84;21071;-75
2021/07/14 07:57:20;;;;;;;16.50;13.20;;;28.10;72.80;;;;;;1683319;84;21092;-79
2021/07/14 07:59:49;;;;;;;17.10;13.53;;;28.00;70.80;;;;;;1687408;84;21591;-79
2021/07/14 08:02:18;;;;;;;17.82;14.30;;;28.00;70.10;;;;;;1688835;84;21028;-79
2021/07/14 08:04:49;;;;;;;18.82;15.38;;;28.00;69.80;;;;;;1637578;85;21051;-78
2021/07/14 08:07:16;;;;;;;17.48;14.45;;;28.00;69.90;;;;;;1689599;84;21476;-77
2021/07/14 08:09:47;;;;;;;12.33;10.65;;;28.10;71.50;;;;;;1660728;85;21145;-78
2021/07/14 08:12:12;;;;;;;15.35;11.25;;;28.10;69.00;;;;;;1659030;86;21048;-74
2021/07/14 08:14:40;;;;;;;16.12;10.63;;;28.10;70.00;;;;;;1676105;84;21023;-73
2021/07/14 08:17:08;;;;;;;12.93;10.68;;;28.10;70.20;;;;;;1688620;84;21150;-74
2021/07/14 08:19:36;;;;;;;15.68;11.80;;;28.10;70.10;;;;;;1689478;83;20990;-75
2021/07/14 08:22:03;;;;;;;14.73;11.50;;;28.10;70.40;;;;;;1678229;85;21069;-75
2021/07/14 08:24:30;;;;;;;13.78;11.40;;;28.10;70.60;;;;;;1685045;84;20996;-73
2021/07/14 08:26:57;;;;;;;14.80;12.20;;;28.10;70.40;;;;;;1690311;83;21618;-74
2021/07/14 08:29:23;;;;;;;13.10;11.38;;;28.10;70.40;;;;;;1661318;84;21032;-74
2021/07/14 08:31:54;;;;;;;12.37;10.78;;;28.10;70.40;;;;;;1658538;86;21132;-73
2021/07/14 08:34:21;;;;;;;16.27;11.15;;;28.10;70.70;;;;;;1658780;86;21059;-73
2021/07/14 08:36:48;;;;;;;12.05;10.70;;;28.20;70.70;;;;;;1667663;84;21519;-73
2021/07/14 08:39:15;;;;;;;13.35;10.98;;;28.30;70.00;;;;;;1688624;84;21012;-66
2021/07/14 08:41:45;;;;;;;12.33;10.32;;;28.40;69.00;;;;;;1689996;84;21071;-66
2021/07/14 08:44:14;;;;;;;12.28;10.23;;;28.60;68.00;;;;;;1688932;84;21040;-66
2021/07/14 08:46:42;;;;;;;12.70;10.20;;;28.70;67.20;;;;;;1690252;84;21023;-67
2021/07/14 08:49:09;;;;;;;12.80;10.72;;;28.80;66.70;;;;;;1698759;83;21502;-66
2021/07/14 08:51:38;;;;;;;12.88;10.23;;;28.90;66.30;;;;;;1701957;83;21557;-66
2021/07/14 08:54:05;;;;;;;11.57;10.10;;;29.00;65.90;;;;;;1704566;84;21082;-67
2021/07/14 08:56:34;;;;;;;13.95;10.95;;;29.10;65.60;;;;;;1669663;83;21146;-66
2021/07/14 08:59:01;;;;;;;12.30;10.68;;;29.20;65.80;;;;;;1674795;84;21000;-67
2021/07/14 09:01:29;;;;;;;19.05;12.37;;;29.20;66.50;;;;;;1690066;83;21075;-61
2021/07/14 09:03:57;;;;;;;15.65;12.70;;;29.30;66.20;;;;;;1676503;84;21008;-64
2021/07/14 09:06:24;;;;;;;15.43;12.45;;;29.40;65.90;;;;;;1690259;84;21043;-64
2021/07/14 09:08:51;;;;;;;14.83;12.63;;;29.30;64.80;;;;;;1686011;84;21035;-62
2021/07/14 09:11:18;;;;;;;19.75;13.50;;;29.30;64.70;;;;;;1690041;84;21078;-62
2021/07/14 09:13:47;;;;;;;23.75;13.70;;;29.30;64.80;;;;;;1690658;83;21059;-64
2021/07/14 09:16:36;;;;;;;22.32;13.45;;;29.30;66.20;;;;;;1690384;83;21051;-62
2021/07/14 09:19:14;;;;;;;28.52;15.55;;;29.20;66.10;;;;;;1688213;84;21028;-65
2021/07/14 09:21:43;;;;;;;30.12;14.60;;;29.30;66.40;;;;;;1679509;84;21063;-65
2021/07/14 09:24:34;;;;;;;26.05;15.40;;;29.20;66.00;;;;;;1684922;84;21032;-66
2021/07/14 09:27:10;;;;;;;24.63;14.93;;;29.20;65.90;;;;;;1663008;85;21004;-72
2021/07/14 09:30:15;;;;;;;29.42;15.10;;;29.20;66.00;;;;;;1660459;85;21562;-68
2021/07/14 09:32:54;;;;;;;29.12;16.00;;;29.20;67.20;;;;;;1643264;85;21047;-65
2021/07/14 09:35:35;;;;;;;49.63;20.85;;;29.20;67.60;;;;;;1685434;85;21024;-61
2021/07/14 09:38:10;;;;;;;71.80;27.25;;;29.10;67.40;;;;;;1690273;84;21087;-70
2021/07/14 09:40:39;;;;;;;65.72;26.00;;;29.00;67.60;;;;;;1688591;84;21054;-63
2021/07/14 09:43:14;;;;;;;53.60;22.60;;;28.90;67.50;;;;;;1690096;83;21106;-76
2021/07/14 09:45:52;;;;;;;219.30;48.83;;;28.90;67.60;;;;;;1689994;84;21649;-62
2021/07/14 09:48:30;;;;;;;139.90;35.78;;;28.80;67.50;;;;;;1688885;84;21020;-63
2021/07/14 09:51:09;;;;;;;100.90;30.97;;;28.80;68.00;;;;;;1639976;84;103866;-75
2021/07/14 09:53:42;;;;;;;79.20;26.82;;;28.70;67.90;;;;;;1530931;92;21113;-70
2021/07/14 09:56:20;;;;;;;61.55;23.52;;;28.70;68.30;;;;;;1531151;92;21745;-75
2021/07/14 09:59:09;;;;;;;57.00;21.97;;;28.70;68.90;;;;;;1525482;91;21165;-77
2021/07/14 10:01:49;;;;;;;44.18;20.97;;;28.70;68.90;;;;;;1525429;92;21582;-67
2021/07/14 10:04:32;;;;;;;35.28;17.87;;;28.60;68.90;;;;;;1521943;93;21039;-70
2021/07/14 10:07:11;;;;;;;32.80;16.62;;;28.60;68.50;;;;;;1498796;94;21118;-69
2021/07/14 10:09:39;;;;;;;35.78;17.15;;;28.60;67.30;;;;;;1523831;92;21066;-71
2021/07/14 10:12:33;;;;;;;33.55;17.57;;;28.60;67.60;;;;;;1529883;93;21645;-66
2021/07/14 10:15:21;;;;;;;37.42;16.55;;;28.50;67.80;;;;;;1538922;90;23190;-65
2021/07/14 10:17:53;;;;;;;32.98;16.65;;;28.50;67.90;;;;;;1560955;89;21060;-75
2021/07/14 10:20:30;;;;;;;32.20;15.95;;;28.50;68.20;;;;;;1559432;87;38083;-71
2021/07/14 10:23:16;;;;;;;35.25;16.00;;;28.40;68.10;;;;;;1510385;93;21649;-66
2021/07/14 10:25:45;;;;;;;31.52;16.02;;;28.40;68.20;;;;;;1484702;95;21140;-66
2021/07/14 10:31:09;;;;;;;23.73;15.75;;;28.40;69.20;;;;;;1788236;78;22546;-63
2021/07/14 10:39:19;;;;;;;25.37;15.48;;;29.80;96.70;;;;;;1690342;79;39751;-64
2021/07/14 10:41:47;;;;;;;25.95;15.03;;;30.00;64.80;;;;;;1664023;83;24366;-65
2021/07/14 10:48:06;;;;;;;24.35;13.65;;;30.60;88.60;;;;;;1797553;79;23051;-78
2021/07/14 10:50:36;;;;;;;30.45;16.35;;;30.80;59.60;;;;;;1771442;80;21034;-78
2021/07/14 10:53:07;;;;;;;21.65;14.28;;;30.70;60.00;;;;;;1766228;80;20999;-78
2021/07/14 10:55:39;;;;;;;21.23;11.93;;;30.50;58.90;;;;;;1716670;82;20992;-77
2021/07/14 10:58:10;;;;;;;27.37;14.58;;;30.30;58.20;;;;;;1766949;80;21043;-78
2021/07/14 11:00:41;;;;;;;22.37;12.53;;;30.30;59.70;;;;;;1762423;80;21019;-79
2021/07/14 11:03:44;;;;;;;67.60;28.07;;;30.20;58.60;;;;;;1773590;80;21090;-80
2021/07/14 11:06:10;;;;;;;73.47;28.45;;;30.20;59.70;;;;;;1625201;83;32185;-79
2021/07/14 11:08:50;;;;;;;58.75;23.30;;;30.20;59.10;;;;;;1616169;87;21096;-78
2021/07/14 11:11:23;;;;;;;49.85;22.40;;;30.20;58.20;;;;;;1624245;87;21080;-78
2021/07/14 11:14:09;;;;;;;119.50;42.48;;;30.30;57.60;;;;;;1626048;87;21092;-79
2021/07/14 11:16:41;;;;;;;143.57;51.37;;;30.30;58.10;;;;;;1626040;87;21104;-77
2021/07/14 11:19:20;;;;;;;168.20;58.85;;;30.30;56.40;;;;;;1618392;87;21048;-78
2021/07/14 11:22:02;;;;;;;180.52;64.12;;;30.40;57.50;;;;;;1603336;87;21088;-78
2021/07/14 11:24:51;;;;;;;201.53;69.87;;;30.40;58.20;;;;;;1625771;87;21637;-78
2021/07/14 11:27:37;;;;;;;157.12;55.88;;;30.30;58.30;;;;;;1614623;87;21052;-79
2021/07/14 11:30:11;;;;;;;129.47;44.20;;;30.30;58.00;;;;;;1616540;87;21092;-77
2021/07/14 11:32:54;;;;;;;146.10;53.30;;;30.30;56.20;;;;;;1597790;86;28885;-80
2021/07/14 11:35:43;;;;;;;101.95;38.75;;;30.40;56.80;;;;;;1597327;89;21118;-78
2021/07/14 11:38:44;;;;;;;105.27;36.68;;;30.60;55.40;;;;;;1597323;88;21097;-79
2021/07/14 11:41:27;;;;;;;125.78;47.05;;;30.60;56.10;;;;;;1598455;88;21149;-82
2021/07/14 11:43:57;;;;;;;113.05;41.18;;;30.70;56.70;;;;;;1596364;88;21106;-79
2021/07/14 11:46:30;;;;;;;46.18;21.40;;;30.70;56.60;;;;;;1571046;90;21187;-80
2021/07/14 11:49:08;;;;;;;27.70;13.65;;;30.70;54.60;;;;;;1591337;88;21066;-80
2021/07/14 11:51:41;;;;;;;64.60;28.60;;;30.90;53.80;;;;;;1573543;90;21050;-80
2021/07/14 11:54:25;;;;;;;66.42;25.57;;;31.10;53.80;;;;;;1591295;88;21078;-82
2021/07/14 11:56:57;;;;;;;59.65;24.18;;;31.20;54.50;;;;;;1561012;90;21009;-79
2021/07/14 11:59:29;;;;;;;62.90;27.13;;;31.20;54.00;;;;;;1589408;90;21071;-80
2021/07/14 12:02:02;;;;;;;44.00;21.10;;;31.20;55.10;;;;;;1530379;90;21592;-81
2021/07/14 12:04:32;;;;;;;41.58;19.77;;;31.30;54.70;;;;;;1583841;90;21059;-79
2021/07/14 12:07:14;;;;;;;41.37;20.30;;;31.40;54.70;;;;;;1585395;89;21047;-80
2021/07/14 12:09:44;;;;;;;32.85;15.80;;;31.50;54.20;;;;;;1585624;89;21094;-79
2021/07/14 12:12:22;;;;;;;36.03;16.65;;;31.90;50.60;;;;;;1586452;89;21123;-77
2021/07/14 12:14:53;;;;;;;36.17;17.95;;;33.40;49.90;;;;;;1555086;91;21682;-81
2021/07/14 12:17:27;;;;;;;31.48;15.23;;;35.50;46.60;;;;;;1581999;88;21118;-81
2021/07/14 12:20:00;;;;;;;29.82;15.58;;;37.30;42.40;;;;;;1586503;88;21069;-90
2021/07/14 12:22:33;;;;;;;23.90;13.50;;;38.80;39.70;;;;;;1574660;90;21067;-87
2021/07/14 12:25:15;;;;;;;18.40;11.18;;;40.00;36.60;;;;;;1575840;90;21070;-81
2021/07/14 12:27:46;;;;;;;17.55;10.70;;;41.20;34.10;;;;;;1575006;89;21102;-79
2021/07/14 12:30:23;;;;;;;17.95;11.83;;;42.20;32.50;;;;;;1576709;90;21054;-87
2021/07/14 12:32:56;;;;;;;12.85;6.30;;;43.10;31.00;;;;;;1575071;90;21613;-85
2021/07/14 12:35:35;;;;;;;15.65;7.97;;;43.80;28.10;;;;;;1575957;90;21157;-79
2021/07/14 12:38:13;;;;;;;7.35;5.65;;;44.20;27.80;;;;;;1574861;90;21067;-85
2021/07/14 12:40:46;;;;;;;9.88;5.17;;;44.70;26.60;;;;;;1574669;89;21082;-86
2021/07/14 12:43:22;;;;;;;5.95;4.97;;;45.90;24.70;;;;;;1551759;90;21159;-89
2021/07/14 12:45:53;;;;;;;9.20;5.40;;;46.90;24.10;;;;;;1576869;89;21185;-86
2021/07/14 12:48:27;;;;;;;8.30;5.55;;;47.80;23.10;;;;;;1578193;90;21101;-85
2021/07/14 12:50:55;;;;;;;7.12;5.95;;;48.70;22.30;;;;;;1578395;88;21140;-85
2021/07/14 12:53:23;;;;;;;6.22;4.87;;;49.90;21.50;;;;;;1578538;90;21113;-86
2021/07/14 12:55:57;;;;;;;7.55;5.00;;;50.80;19.50;;;;;;1578316;88;21101;-89
2021/07/14 12:58:29;;;;;;;5.60;5.00;;;51.70;18.90;;;;;;1578750;88;21620;-88
2021/07/14 13:01:03;;;;;;;7.55;5.22;;;52.70;18.20;;;;;;1578665;88;21097;-87
2021/07/14 13:03:33;;;;;;;5.53;5.03;;;53.50;17.50;;;;;;1575176;90;21158;-87
2021/07/14 13:06:05;;;;;;;8.55;5.10;;;53.90;17.10;;;;;;1575135;89;21074;-87
2021/07/14 13:08:35;;;;;;;8.88;5.08;;;54.30;16.70;;;;;;1555310;90;21097;-89
2021/07/14 13:11:09;;;;;;;6.53;5.03;;;54.40;16.80;;;;;;1574302;89;21050;-88
2021/07/14 13:13:39;;;;;;;7.85;4.83;;;54.00;16.70;;;;;;1574354;90;21644;-89